Time;durP1;ratioP1;P1;durP2;ratioP2;P2;SDS_P1;SDS_P2;PMS_P1;PMS_P2;Temp;Humidity;BMP_temperature;BMP_pressure;BME280_temperature;BME280_humidity;BME280_pressure;Samples;Min_cycle;Max_cycle;Signal;HPM_P1;HPM_P2
2022/01/31 00:02:10;;;;;;;14.23;4.63;;;;;;;15.19;40.14;102245.00;5013915;28;20033;-74
2022/01/31 00:04:36;;;;;;;16.38;5.03;;;;;;;15.02;40.31;102253.88;5013925;28;20037;-74
2022/01/31 00:07:03;;;;;;;20.05;4.05;;;;;;;15.32;39.74;102243.34;5014141;28;20021;-74
2022/01/31 00:09:29;;;;;;;14.77;3.13;;;;;;;15.08;39.93;102257.34;5010736;28;20022;-74
2022/01/31 00:12:04;;;;;;;14.35;3.33;;;;;;;15.16;40.14;102254.69;4997872;28;20045;-75
2022/01/31 00:16:56;;;;;;;15.48;3.35;;;;;;;15.08;40.21;102243.56;4997476;28;20034;-75
2022/01/31 00:19:21;;;;;;;13.60;3.45;;;;;;;15.22;39.44;102244.38;4997856;28;20037;-75
2022/01/31 00:21:47;;;;;;;14.65;2.92;;;;;;;15.34;39.40;102252.94;4997539;28;20536;-76
2022/01/31 00:24:13;;;;;;;11.82;3.05;;;;;;;15.50;38.97;102247.91;5012421;28;20416;-74
2022/01/31 00:26:38;;;;;;;15.27;2.53;;;;;;;15.51;38.81;102249.53;5007782;28;20030;-75
2022/01/31 00:29:04;;;;;;;14.98;3.03;;;;;;;15.70;38.33;102244.72;5010769;28;20050;-74
2022/01/31 00:31:31;;;;;;;13.20;3.00;;;;;;;15.52;38.54;102254.75;5013703;28;20025;-74
2022/01/31 00:33:57;;;;;;;21.25;3.42;;;;;;;15.31;38.92;102255.50;5013685;28;20030;-75
2022/01/31 00:36:22;;;;;;;11.63;3.67;;;;;;;15.16;39.36;102268.44;5013422;28;20081;-75
2022/01/31 00:38:48;;;;;;;15.27;3.85;;;;;;;15.34;39.00;102290.66;5013658;28;20034;-76
2022/01/31 00:41:14;;;;;;;14.15;3.47;;;;;;;15.09;39.93;102289.25;5013465;28;20111;-75
2022/01/31 00:43:40;;;;;;;18.73;4.43;;;;;;;15.58;39.13;102287.69;5012983;28;20431;-84
2022/01/31 00:46:11;;;;;;;17.15;3.55;;;;;;;15.60;39.28;102305.53;5013203;28;20033;-74
2022/01/31 00:48:44;;;;;;;11.88;3.00;;;;;;;15.58;39.19;102318.00;5013492;28;20096;-74
2022/01/31 00:51:10;;;;;;;12.95;2.92;;;;;;;15.66;39.21;102323.63;5013050;28;20527;-75
2022/01/31 00:53:37;;;;;;;11.80;2.83;;;;;;;15.87;38.85;102328.66;5013031;28;20100;-75
2022/01/31 00:56:03;;;;;;;16.55;3.97;;;;;;;15.88;38.68;102333.88;5013106;28;20479;-74
2022/01/31 00:58:29;;;;;;;11.48;3.33;;;;;;;15.91;38.71;102341.53;5013273;28;20033;-75
2022/01/31 01:00:55;;;;;;;12.25;2.55;;;;;;;15.55;39.41;102345.03;5013061;28;20034;-74
2022/01/31 01:03:20;;;;;;;11.80;3.58;;;;;;;15.62;39.07;102341.06;5011657;28;20065;-74
2022/01/31 01:05:46;;;;;;;13.98;3.95;;;;;;;15.50;39.48;102345.16;5013189;28;20054;-74
2022/01/31 01:08:12;;;;;;;11.10;2.97;;;;;;;15.73;38.93;102343.31;5012815;28;20034;-76
2022/01/31 01:10:38;;;;;;;14.80;3.22;;;;;;;15.82;38.64;102341.44;5011575;28;20034;-74
2022/01/31 01:13:04;;;;;;;14.70;3.08;;;;;;;15.91;38.48;102349.78;5012711;28;20029;-74
2022/01/31 01:15:30;;;;;;;12.60;3.53;;;;;;;15.87;38.43;102343.28;5012818;28;20096;-74
2022/01/31 01:17:55;;;;;;;9.20;2.15;;;;;;;15.31;39.41;102346.38;5013039;28;20049;-74
2022/01/31 01:20:21;;;;;;;14.82;3.03;;;;;;;15.76;38.50;102328.91;5012639;28;20109;-78
2022/01/31 01:22:47;;;;;;;11.68;2.92;;;;;;;15.48;38.83;102321.75;5013014;28;20046;-74
2022/01/31 01:25:14;;;;;;;11.65;2.83;;;;;;;15.86;38.31;102341.63;5012759;28;20381;-74
2022/01/31 01:27:42;;;;;;;9.32;3.15;;;;;;;15.98;38.02;102338.34;5012456;28;20021;-75
2022/01/31 01:30:10;;;;;;;12.43;3.17;;;;;;;15.99;38.01;102332.50;5012546;28;20488;-74
2022/01/31 01:32:46;;;;;;;10.95;3.15;;;;;;;16.11;37.84;102334.75;5012546;28;20117;-74
2022/01/31 01:35:12;;;;;;;9.25;3.00;;;;;;;16.18;37.69;102337.88;5012581;28;20088;-74
2022/01/31 01:37:38;;;;;;;12.80;2.72;;;;;;;16.16;37.76;102347.56;5012508;28;20053;-74
2022/01/31 01:40:05;;;;;;;7.07;2.63;;;;;;;16.11;38.00;102343.00;5012542;28;20073;-75
2022/01/31 01:42:31;;;;;;;11.25;3.92;;;;;;;16.15;37.96;102326.63;5012528;28;20029;-74
2022/01/31 01:44:56;;;;;;;16.77;3.50;;;;;;;16.12;38.04;102327.28;5012654;28;20037;-75
2022/01/31 01:47:24;;;;;;;11.25;3.00;;;;;;;16.12;37.79;102308.78;5012463;28;20440;-75
2022/01/31 01:49:51;;;;;;;15.32;2.97;;;;;;;15.90;38.22;102304.06;5012325;28;20030;-74
2022/01/31 01:52:17;;;;;;;10.95;2.60;;;;;;;15.85;38.35;102311.63;5012445;28;20476;-74
2022/01/31 01:54:48;;;;;;;16.75;3.50;;;;;;;15.80;38.40;102332.69;5012449;28;20026;-84
2022/01/31 01:57:14;;;;;;;11.70;3.05;;;;;;;15.80;38.46;102348.41;5015778;28;20030;-74
2022/01/31 01:59:41;;;;;;;15.73;3.85;;;;;;;15.82;38.48;102357.16;5016286;28;20064;-74
2022/01/31 02:02:07;;;;;;;13.77;2.92;;;;;;;15.77;38.63;102357.28;5016235;28;20022;-74
2022/01/31 02:04:34;;;;;;;16.73;3.45;;;;;;;15.86;38.65;102362.88;5016252;28;20523;-83
2022/01/31 02:06:59;;;;;;;11.27;2.70;;;;;;;16.05;38.28;102366.31;5016109;28;20045;-74
2022/01/31 02:09:28;;;;;;;16.60;3.25;;;;;;;16.02;38.40;102359.47;5016020;28;20056;-74
2022/01/31 02:11:55;;;;;;;12.35;3.00;;;;;;;16.12;38.02;102363.13;5016035;28;20057;-74
2022/01/31 02:14:22;;;;;;;10.23;2.92;;;;;;;16.03;38.12;102374.91;5016154;28;20165;-74
2022/01/31 02:16:50;;;;;;;10.43;2.53;;;;;;;16.07;37.80;102381.41;5016003;28;20101;-74
2022/01/31 02:19:17;;;;;;;12.13;3.10;;;;;;;16.00;38.00;102377.44;5015897;28;20033;-74
2022/01/31 02:21:43;;;;;;;10.88;2.60;;;;;;;15.79;38.26;102382.56;5016150;28;20377;-74
2022/01/31 02:24:09;;;;;;;14.10;3.35;;;;;;;15.89;37.86;102373.28;5016130;28;20026;-74
2022/01/31 02:26:35;;;;;;;14.95;2.97;;;;;;;16.05;37.36;102383.66;5015765;28;20033;-74
2022/01/31 02:29:00;;;;;;;12.25;2.78;;;;;;;15.89;37.42;102376.88;5015522;28;20050;-75
2022/01/31 02:31:26;;;;;;;7.95;2.78;;;;;;;15.77;37.39;102380.13;5015598;28;20037;-74
2022/01/31 02:33:51;;;;;;;11.65;3.47;;;;;;;15.83;37.46;102375.34;5015713;28;20034;-74
2022/01/31 02:36:17;;;;;;;12.15;3.15;;;;;;;15.85;37.20;102369.50;5015591;28;20064;-74
2022/01/31 02:38:43;;;;;;;11.40;3.03;;;;;;;15.91;36.90;102366.34;5015593;28;20037;-74
2022/01/31 02:41:08;;;;;;;10.23;2.85;;;;;;;15.90;36.73;102364.72;5015822;28;20022;-74
2022/01/31 02:43:35;;;;;;;12.52;3.28;;;;;;;15.85;36.92;102364.00;5015552;28;20599;-74
2022/01/31 02:46:02;;;;;;;12.52;3.25;;;;;;;16.03;36.52;102366.63;5015428;28;20105;-74
2022/01/31 02:48:30;;;;;;;20.83;3.20;;;;;;;15.88;36.54;102355.94;5015380;28;20029;-75
2022/01/31 02:50:56;;;;;;;12.27;3.15;;;;;;;15.85;36.71;102362.06;5015295;28;20044;-74
2022/01/31 02:53:25;;;;;;;9.75;2.15;;;;;;;15.99;36.36;102364.78;5015326;28;20030;-80
2022/01/31 02:55:53;;;;;;;10.77;3.03;;;;;;;15.83;36.88;102369.81;5015241;28;20022;-75
2022/01/31 02:58:19;;;;;;;9.80;2.50;;;;;;;15.92;36.61;102376.22;5015451;28;20030;-75
2022/01/31 03:00:45;;;;;;;15.48;3.25;;;;;;;16.04;36.34;102375.72;5015168;28;20029;-74
2022/01/31 03:03:11;;;;;;;9.80;2.40;;;;;;;16.05;36.20;102367.13;5015194;28;20030;-74
2022/01/31 03:05:37;;;;;;;13.35;3.53;;;;;;;16.11;36.39;102369.78;5015059;28;20534;-74
2022/01/31 03:08:03;;;;;;;12.27;3.97;;;;;;;16.15;36.19;102368.00;5014672;28;20030;-74
2022/01/31 03:10:31;;;;;;;12.55;3.10;;;;;;;16.04;36.14;102373.75;5014828;28;20022;-74
2022/01/31 03:12:56;;;;;;;11.02;2.50;;;;;;;15.85;36.52;102377.78;5014993;28;20033;-75
2022/01/31 03:15:22;;;;;;;15.50;4.57;;;;;;;16.08;36.31;102377.50;5014909;28;20022;-74
2022/01/31 03:17:49;;;;;;;12.65;3.58;;;;;;;16.18;36.39;102386.69;5015135;28;20025;-74
2022/01/31 03:20:17;;;;;;;15.77;4.28;;;;;;;16.26;36.13;102370.22;5014770;28;20083;-75
2022/01/31 03:22:43;;;;;;;13.98;3.97;;;;;;;16.28;36.19;102369.91;5014833;28;20034;-75
2022/01/31 03:25:08;;;;;;;14.27;3.67;;;;;;;16.23;35.98;102386.56;5014740;28;20026;-74
2022/01/31 03:27:34;;;;;;;14.77;3.72;;;;;;;16.24;36.33;102390.94;5014660;28;20112;-74
2022/01/31 03:30:00;;;;;;;14.15;2.92;;;;;;;16.11;36.75;102387.13;5014518;28;20038;-74
2022/01/31 03:32:26;;;;;;;16.00;3.28;;;;;;;16.19;36.56;102382.81;5014836;28;20148;-74
2022/01/31 03:34:52;;;;;;;18.25;4.20;;;;;;;16.21;36.38;102389.66;5014526;28;20539;-74
2022/01/31 03:37:17;;;;;;;17.45;4.00;;;;;;;16.05;36.66;102388.38;5014467;28;20029;-74
2022/01/31 03:39:43;;;;;;;23.08;5.38;;;;;;;16.00;36.63;102408.56;5014432;28;20026;-85
2022/01/31 03:42:08;;;;;;;14.63;4.25;;;;;;;15.89;37.04;102407.19;5014351;28;20026;-75
2022/01/31 03:44:34;;;;;;;16.60;4.35;;;;;;;15.90;36.81;102396.97;5014303;28;20028;-75
2022/01/31 03:47:00;;;;;;;13.48;3.83;;;;;;;15.86;36.88;102401.47;5014327;28;20383;-74
2022/01/31 03:49:26;;;;;;;13.50;3.30;;;;;;;15.67;36.95;102416.19;5014126;28;20026;-74
2022/01/31 03:51:52;;;;;;;17.05;3.08;;;;;;;15.80;36.65;102411.78;5014188;28;20028;-75
2022/01/31 03:54:17;;;;;;;13.45;3.20;;;;;;;15.80;36.47;102414.56;5014420;28;20028;-74
2022/01/31 03:56:43;;;;;;;20.58;3.45;;;;;;;15.50;37.09;102429.72;5014138;28;20605;-74
2022/01/31 03:59:09;;;;;;;14.65;3.60;;;;;;;15.48;37.15;102418.19;5014416;28;20026;-74
2022/01/31 04:01:35;;;;;;;21.25;3.97;;;;;;;15.41;37.04;102440.63;5014016;28;20045;-74
2022/01/31 04:04:00;;;;;;;19.85;4.72;;;;;;;15.39;37.17;102439.28;5014171;28;20456;-75
2022/01/31 04:06:26;;;;;;;14.90;3.33;;;;;;;15.54;36.83;102445.31;5014019;28;20379;-79
2022/01/31 04:08:52;;;;;;;14.05;3.75;;;;;;;15.53;36.79;102448.41;5013854;28;20041;-75
2022/01/31 04:11:18;;;;;;;13.50;3.60;;;;;;;15.65;36.61;102459.78;5013710;28;20057;-77
2022/01/31 04:13:44;;;;;;;11.52;2.95;;;;;;;15.70;36.72;102467.09;5013778;28;20029;-74
2022/01/31 04:16:10;;;;;;;12.80;3.00;;;;;;;15.65;36.72;102462.53;5013775;28;20391;-74
2022/01/31 04:18:35;;;;;;;13.65;4.00;;;;;;;15.66;37.06;102477.13;5012873;28;20088;-74
2022/01/31 04:21:01;;;;;;;12.27;3.17;;;;;;;15.64;36.74;102471.91;5013958;28;20056;-74
2022/01/31 04:23:28;;;;;;;18.83;4.65;;;;;;;15.65;36.93;102481.81;5013546;28;20574;-74
2022/01/31 04:26:02;;;;;;;9.77;3.00;;;;;;;15.85;36.56;102486.09;5013507;28;20033;-83
2022/01/31 04:28:38;;;;;;;13.23;3.50;;;;;;;15.91;36.25;102490.38;5013225;28;20560;-74
2022/01/31 04:31:24;;;;;;;12.63;3.20;;;;;;;15.95;36.22;102482.34;5013417;28;20045;-74
2022/01/31 04:33:51;;;;;;;13.57;2.75;;;;;;;15.98;36.20;102493.53;5013479;28;20030;-74
2022/01/31 04:36:18;;;;;;;11.77;3.35;;;;;;;15.95;36.44;102496.94;5013355;28;20025;-75
2022/01/31 04:38:46;;;;;;;15.45;3.22;;;;;;;15.77;36.78;102495.06;5013370;28;20109;-75
2022/01/31 04:41:12;;;;;;;15.23;4.28;;;;;;;15.85;36.47;102497.13;5013599;28;20033;-74
2022/01/31 04:43:38;;;;;;;10.88;2.88;;;;;;;15.81;36.63;102504.38;5013676;28;20033;-74
2022/01/31 04:46:07;;;;;;;16.45;3.42;;;;;;;15.75;36.71;102516.63;5013507;28;20387;-74
2022/01/31 04:48:34;;;;;;;20.25;5.05;;;;;;;15.78;36.68;102507.72;5013147;28;20030;-74
2022/01/31 04:51:00;;;;;;;15.60;3.45;;;;;;;15.54;36.86;102513.38;5013364;28;20084;-74
2022/01/31 04:53:25;;;;;;;13.02;3.83;;;;;;;15.55;36.91;102515.03;5013084;28;20057;-75
2022/01/31 04:55:52;;;;;;;19.13;3.65;;;;;;;15.65;36.97;102512.13;5013018;28;20500;-74
2022/01/31 04:58:21;;;;;;;16.77;3.33;;;;;;;15.69;36.93;102515.06;5013025;28;20026;-84
2022/01/31 05:00:46;;;;;;;16.60;3.42;;;;;;;15.52;37.62;102523.91;5013067;28;20026;-74
2022/01/31 05:03:14;;;;;;;17.58;4.32;;;;;;;15.57;37.32;102525.72;5013241;28;20520;-74
2022/01/31 05:05:41;;;;;;;12.20;3.20;;;;;;;15.61;37.33;102527.63;5013004;28;20472;-74
2022/01/31 05:08:07;;;;;;;11.75;3.13;;;;;;;15.18;38.37;102532.47;5012934;28;20130;-75
2022/01/31 05:10:34;;;;;;;13.57;3.28;;;;;;;15.45;38.02;102537.25;5013179;28;20044;-74
2022/01/31 05:13:01;;;;;;;14.40;3.40;;;;;;;15.43;37.90;102532.06;5013165;28;20445;-74
2022/01/31 05:15:26;;;;;;;17.83;3.88;;;;;;;15.47;38.15;102555.09;5012748;28;20053;-74
2022/01/31 05:17:52;;;;;;;15.05;3.45;;;;;;;15.33;38.33;102556.19;5012775;28;20069;-74
2022/01/31 05:20:18;;;;;;;13.25;3.55;;;;;;;15.35;38.51;102553.97;5012658;28;20088;-75
2022/01/31 05:22:43;;;;;;;21.33;3.65;;;;;;;15.29;38.54;102555.16;5012760;28;20080;-76
2022/01/31 05:25:09;;;;;;;10.18;2.65;;;;;;;15.63;38.06;102552.91;5009958;28;20030;-75
2022/01/31 05:27:35;;;;;;;19.00;4.50;;;;;;;15.45;38.47;102560.09;5012809;28;20038;-74
2022/01/31 05:30:02;;;;;;;17.20;3.97;;;;;;;15.71;37.87;102559.66;5012174;28;20463;-74
2022/01/31 05:32:28;;;;;;;17.90;4.53;;;;;;;15.48;38.42;102573.25;5012593;28;20030;-74
2022/01/31 05:34:53;;;;;;;13.25;2.97;;;;;;;15.59;38.47;102571.16;5012533;28;20510;-76
2022/01/31 05:37:19;;;;;;;13.75;3.88;;;;;;;15.70;38.05;102580.09;5012674;28;20083;-74
2022/01/31 05:39:46;;;;;;;8.98;2.72;;;;;;;15.79;38.03;102586.53;5012548;28;20428;-75
2022/01/31 05:42:11;;;;;;;7.75;2.60;;;;;;;15.42;38.44;102582.75;5012824;28;20065;-74
2022/01/31 05:44:37;;;;;;;12.70;3.42;;;;;;;15.53;38.29;102581.44;5012696;28;20056;-74
2022/01/31 05:47:03;;;;;;;12.68;3.03;;;;;;;15.45;38.39;102587.66;5012408;28;20503;-75
2022/01/31 05:49:29;;;;;;;14.50;3.72;;;;;;;15.60;38.13;102596.78;5012371;28;20473;-74
2022/01/31 05:52:02;;;;;;;16.08;3.40;;;;;;;15.61;38.11;102601.16;5012710;28;20071;-75
2022/01/31 05:54:32;;;;;;;15.25;3.85;;;;;;;15.71;37.84;102596.31;5012481;28;20477;-74
2022/01/31 05:56:59;;;;;;;16.70;4.15;;;;;;;15.69;37.77;102589.47;5012364;28;20018;-74
2022/01/31 05:59:26;;;;;;;11.35;3.30;;;;;;;15.70;37.78;102596.63;5012334;28;20026;-74
2022/01/31 06:01:52;;;;;;;14.85;3.65;;;;;;;15.66;38.01;102595.59;5012390;28;20497;-74
2022/01/31 06:04:17;;;;;;;11.38;3.65;;;;;;;15.68;37.90;102588.66;5012604;28;20037;-75
2022/01/31 06:06:43;;;;;;;12.52;3.25;;;;;;;15.28;38.72;102592.91;5012283;28;20034;-75
2022/01/31 06:09:09;;;;;;;9.95;2.80;;;;;;;15.14;38.68;102600.28;5012588;28;20491;-74
2022/01/31 06:11:35;;;;;;;13.25;3.50;;;;;;;15.23;38.41;102602.06;5012193;28;20112;-74
2022/01/31 06:14:02;;;;;;;9.70;2.63;;;;;;;15.13;38.31;102593.13;5012492;28;20026;-74
2022/01/31 06:16:29;;;;;;;12.18;2.88;;;;;;;15.12;38.06;102597.84;5012239;28;20100;-74
2022/01/31 06:18:55;;;;;;;13.40;3.42;;;;;;;14.93;38.53;102611.59;5012159;28;20032;-74
2022/01/31 06:21:21;;;;;;;15.10;4.18;;;;;;;14.60;39.40;102618.91;5012457;28;20380;-75
2022/01/31 06:23:47;;;;;;;12.77;2.50;;;;;;;14.78;38.97;102630.25;5012206;28;20029;-74
2022/01/31 06:26:12;;;;;;;13.68;2.78;;;;;;;14.97;38.49;102631.91;5012132;28;20080;-75
2022/01/31 06:28:38;;;;;;;9.20;2.95;;;;;;;14.93;38.63;102625.34;5011848;28;20500;-75
2022/01/31 06:31:04;;;;;;;16.00;3.33;;;;;;;14.64;39.30;102628.22;5011609;28;20037;-74
2022/01/31 06:33:30;;;;;;;12.23;3.25;;;;;;;14.77;38.96;102640.44;5012192;28;20029;-75
2022/01/31 06:35:55;;;;;;;13.82;4.05;;;;;;;14.81;38.88;102636.00;5012363;28;20117;-83
2022/01/31 06:38:22;;;;;;;12.02;3.00;;;;;;;14.83;38.71;102642.00;5011993;28;20073;-74
2022/01/31 06:40:48;;;;;;;12.10;3.45;;;;;;;14.91;38.54;102654.28;5012321;28;20370;-84
2022/01/31 06:43:14;;;;;;;15.93;2.97;;;;;;;14.82;38.83;102654.13;5014922;28;20109;-83
2022/01/31 06:45:40;;;;;;;12.02;3.90;;;;;;;14.99;38.17;102659.13;5015512;28;20118;-79
2022/01/31 06:48:06;;;;;;;16.20;3.90;;;;;;;14.95;38.42;102661.66;5015421;28;20061;-74
2022/01/31 06:50:32;;;;;;;13.68;3.35;;;;;;;14.99;38.24;102659.94;5015317;28;20081;-74
2022/01/31 06:52:57;;;;;;;21.77;3.63;;;;;;;14.97;38.21;102642.91;5015352;28;20026;-74
2022/01/31 06:55:24;;;;;;;19.00;4.22;;;;;;;14.89;38.41;102643.59;5015301;28;20038;-75
2022/01/31 06:57:51;;;;;;;18.88;4.65;;;;;;;14.81;38.48;102632.38;5015291;28;20033;-74
2022/01/31 07:00:18;;;;;;;13.82;3.60;;;;;;;14.83;38.30;102620.00;5015160;28;20079;-74
2022/01/31 07:02:46;;;;;;;15.02;3.90;;;;;;;14.88;37.98;102608.88;5013688;28;20088;-76
2022/01/31 07:05:15;;;;;;;15.07;3.22;;;;;;;14.78;38.35;102614.53;5014135;28;20036;-84
2022/01/31 07:07:41;;;;;;;15.33;3.30;;;;;;;14.75;38.48;102608.84;5014064;28;20380;-74
2022/01/31 07:10:08;;;;;;;13.52;4.10;;;;;;;14.60;38.71;102618.09;5013466;28;20312;-75
2022/01/31 07:12:37;;;;;;;13.35;3.10;;;;;;;14.56;38.79;102617.84;5013506;28;20129;-74
2022/01/31 07:15:05;;;;;;;15.23;4.60;;;;;;;14.54;38.78;102622.03;5013599;28;20053;-74
2022/01/31 07:17:31;;;;;;;17.48;3.42;;;;;;;14.58;38.56;102629.38;5011070;28;20079;-75
2022/01/31 07:19:57;;;;;;;20.10;4.07;;;;;;;14.49;38.74;102622.91;5013540;28;20109;-74
2022/01/31 07:22:31;;;;;;;21.88;4.07;;;;;;;14.50;38.52;102640.22;5013826;28;20034;-75
2022/01/31 07:25:06;;;;;;;13.82;2.67;;;;;;;14.58;38.72;102647.81;5011893;28;20551;-74
2022/01/31 07:27:32;;;;;;;15.35;3.00;;;;;;;14.56;38.97;102645.38;5012188;28;20021;-74
2022/01/31 07:29:58;;;;;;;22.55;4.45;;;;;;;14.63;38.86;102645.84;5014360;28;20512;-73
2022/01/31 07:32:24;;;;;;;10.25;2.55;;;;;;;14.68;38.55;102654.03;5014672;28;20034;-73
2022/01/31 07:34:53;;;;;;;12.52;4.82;;;;;;;14.71;38.60;102652.63;5014369;28;20428;-74
2022/01/31 07:37:27;;;;;;;16.60;3.60;;;;;;;14.71;38.82;102669.13;5013173;28;20022;-85
2022/01/31 07:39:53;;;;;;;15.10;4.95;;;;;;;14.89;38.36;102675.78;5013588;28;20017;-77
2022/01/31 07:42:19;;;;;;;15.48;4.85;;;;;;;15.01;38.31;102681.66;5013034;28;20025;-75
2022/01/31 07:44:45;;;;;;;14.07;3.53;;;;;;;14.86;38.66;102693.69;5013404;28;20025;-75
2022/01/31 07:47:11;;;;;;;11.55;3.33;;;;;;;15.03;38.55;102692.38;5014149;28;20026;-76
2022/01/31 07:49:37;;;;;;;15.98;4.55;;;;;;;15.04;38.63;102694.00;5014225;28;20029;-73
2022/01/31 07:52:03;;;;;;;40.25;6.95;;;;;;;15.06;38.44;102697.31;5014154;28;20025;-73
2022/01/31 07:54:29;;;;;;;14.63;4.45;;;;;;;14.94;38.63;102692.22;5014346;28;20048;-74
2022/01/31 07:56:56;;;;;;;19.23;4.00;;;;;;;14.95;38.61;102697.44;5014065;28;20469;-73
2022/01/31 07:59:22;;;;;;;14.65;3.75;;;;;;;15.20;38.39;102703.72;5014132;28;20458;-72
2022/01/31 08:01:48;;;;;;;11.30;3.40;;;;;;;15.25;37.97;102711.91;5012752;28;20084;-72
2022/01/31 08:04:14;;;;;;;17.58;4.95;;;;;;;15.29;38.23;102717.66;5014052;28;20026;-73
2022/01/31 08:06:40;;;;;;;16.15;4.35;;;;;;;15.29;38.31;102729.47;5013876;28;20037;-74
2022/01/31 08:09:06;;;;;;;15.80;4.70;;;;;;;15.31;38.15;102720.91;5013886;28;20099;-72
2022/01/31 08:11:33;;;;;;;16.13;3.63;;;;;;;15.36;38.07;102718.91;5013784;28;20119;-74
2022/01/31 08:14:05;;;;;;;22.05;4.00;;;;;;;15.20;38.30;102740.34;5014120;28;20083;-74
2022/01/31 08:16:30;;;;;;;14.10;3.08;;;;;;;15.14;38.42;102749.78;5012540;28;20412;-70
2022/01/31 08:18:56;;;;;;;13.90;3.38;;;;;;;15.41;38.10;102749.13;5013757;28;20030;-73
2022/01/31 08:21:23;;;;;;;13.82;3.15;;;;;;;15.13;38.64;102748.16;5013729;28;20487;-73
2022/01/31 08:23:49;;;;;;;19.15;4.32;;;;;;;15.29;38.61;102758.97;5012586;28;20069;-73
2022/01/31 08:26:16;;;;;;;11.50;3.22;;;;;;;15.13;38.94;102769.34;5012325;28;20138;-74
2022/01/31 08:28:54;;;;;;;15.07;3.92;;;;;;;15.35;39.08;102755.03;5012425;28;20040;-74
2022/01/31 08:31:29;;;;;;;17.55;4.63;;;;;;;15.14;39.43;102755.28;5011809;28;20036;-73
2022/01/31 08:36:23;;;;;;;13.05;3.28;;;;;;;15.08;39.98;102764.72;5011753;28;20393;-73
2022/01/31 08:38:48;;;;;;;13.27;3.53;;;;;;;14.98;40.38;102760.16;5012205;28;20083;-78
2022/01/31 08:41:14;;;;;;;17.23;3.05;;;;;;;15.03;40.28;102761.19;5011923;28;20112;-74
2022/01/31 08:43:41;;;;;;;18.05;4.47;;;;;;;14.81;40.80;102768.09;5012851;28;20064;-74
2022/01/31 08:46:08;;;;;;;15.52;4.47;;;;;;;15.18;40.09;102761.81;5012663;28;20119;-74
2022/01/31 08:48:34;;;;;;;13.75;3.10;;;;;;;15.32;39.80;102774.88;5012737;28;20033;-73
2022/01/31 08:51:02;;;;;;;12.88;5.03;;;;;;;15.01;40.47;102772.50;5012647;28;20026;-74
2022/01/31 08:53:27;;;;;;;14.65;3.30;;;;;;;15.29;39.98;102783.75;5012959;28;20026;-74
2022/01/31 08:55:58;;;;;;;11.50;3.17;;;;;;;15.31;40.21;102779.56;5013109;28;20432;-73
2022/01/31 08:58:24;;;;;;;10.45;3.10;;;;;;;14.84;41.23;102778.50;5013088;28;20037;-77
2022/01/31 09:00:58;;;;;;;14.35;3.80;;;;;;;15.20;40.56;102781.66;5013125;28;20128;-73
2022/01/31 09:04:12;;;;;;;16.60;4.15;;;;;;;15.22;40.44;102782.16;5013002;28;20034;-73
2022/01/31 09:06:11;;;;;;;12.48;3.70;;;;;;;15.06;40.99;102783.47;5011796;28;20109;-73
2022/01/31 09:08:38;;;;;;;16.77;3.60;;;;;;;15.21;40.54;102783.28;5012946;28;20076;-73
2022/01/31 09:11:04;;;;;;;21.52;5.28;;;;;;;15.16;40.85;102790.78;5012751;28;20082;-74
2022/01/31 09:13:30;;;;;;;14.27;4.00;;;;;;;15.23;40.68;102774.72;5013126;28;20026;-73
2022/01/31 09:15:55;;;;;;;20.63;4.03;;;;;;;15.35;40.50;102774.31;5012925;28;20017;-73
2022/01/31 09:18:21;;;;;;;13.90;2.85;;;;;;;15.37;40.51;102785.84;5012769;28;20543;-78
2022/01/31 09:20:47;;;;;;;12.25;3.40;;;;;;;15.34;40.48;102787.25;5012765;28;20037;-73
2022/01/31 09:23:12;;;;;;;18.48;3.58;;;;;;;15.46;40.27;102789.56;5013017;28;20029;-74
2022/01/31 09:25:44;;;;;;;12.15;3.40;;;;;;;15.54;39.97;102799.94;5012981;28;20362;-74
2022/01/31 09:28:10;;;;;;;11.57;3.72;;;;;;;15.46;40.33;102795.91;5012534;28;20034;-74
2022/01/31 09:30:37;;;;;;;13.48;2.58;;;;;;;15.63;40.15;102798.16;5012652;28;20029;-73
2022/01/31 09:33:03;;;;;;;15.55;4.22;;;;;;;15.72;39.79;102790.91;5012663;28;20041;-73
2022/01/31 09:35:28;;;;;;;10.13;2.95;;;;;;;15.81;39.86;102799.31;5012576;28;20026;-73
2022/01/31 09:37:54;;;;;;;16.90;3.20;;;;;;;15.74;39.77;102796.91;5012493;28;20022;-73
2022/01/31 09:40:22;;;;;;;13.02;3.20;;;;;;;15.58;40.33;102791.91;5011316;28;20037;-73
2022/01/31 09:43:09;;;;;;;6.25;2.65;;;;;;;15.86;39.57;102792.88;5012508;28;20476;-72
2022/01/31 09:48:33;;;;;;;11.98;3.00;;;;;;;15.67;40.08;102795.66;5012767;28;20456;-73
2022/01/31 09:51:05;;;;;;;13.80;3.38;;;;;;;16.03;39.41;102787.66;5012407;28;20480;-73
2022/01/31 09:53:34;;;;;;;17.30;4.10;;;;;;;15.88;39.79;102783.22;5012505;28;20076;-73
2022/01/31 09:56:01;;;;;;;14.38;4.13;;;;;;;15.99;39.34;102778.34;5012684;28;20124;-73
2022/01/31 09:58:29;;;;;;;14.05;3.22;;;;;;;15.73;40.18;102783.44;5012513;28;20387;-73
2022/01/31 10:01:13;;;;;;;10.93;2.97;;;;;;;15.87;39.35;102778.81;5012673;28;20446;-72
2022/01/31 10:03:49;;;;;;;8.70;2.60;;;;;;;16.11;39.22;102777.88;5012478;28;20026;-73
2022/01/31 10:06:22;;;;;;;10.18;2.72;;;;;;;15.87;39.53;102781.56;5012485;28;20022;-73
2022/01/31 10:09:00;;;;;;;10.43;3.20;;;;;;;15.94;39.46;102773.72;5011372;28;20026;-74
2022/01/31 10:11:30;;;;;;;12.60;2.92;;;;;;;16.05;39.48;102783.47;5012194;28;20030;-73
2022/01/31 10:17:23;;;;;;;8.73;2.25;;;;;;;16.10;39.65;102793.63;5013744;28;20499;-74
2022/01/31 10:19:49;;;;;;;13.45;2.67;;;;;;;16.05;39.73;102805.53;5016055;28;20030;-74
2022/01/31 10:22:17;;;;;;;10.70;3.35;;;;;;;16.11;39.73;102805.47;5015882;28;20025;-73
2022/01/31 10:24:45;;;;;;;11.25;3.40;;;;;;;16.27;39.40;102810.44;5015982;28;20469;-73
2022/01/31 10:27:12;;;;;;;18.65;3.30;;;;;;;16.13;39.81;102819.78;5015924;28;20022;-73
2022/01/31 10:29:39;;;;;;;13.20;3.40;;;;;;;15.89;40.57;102822.63;5015705;28;20046;-75
2022/01/31 10:32:17;;;;;;;12.32;2.25;;;;;;;15.88;40.85;102827.31;5015808;28;20105;-73
2022/01/31 10:34:52;;;;;;;10.63;3.17;;;;;;;16.01;40.61;102834.81;5014771;28;20488;-74
2022/01/31 10:37:21;;;;;;;18.85;3.33;;;;;;;16.07;40.36;102838.31;5015790;28;20105;-73
2022/01/31 10:45:52;;;;;;;17.92;3.30;;;;;;;16.36;39.90;102827.09;5015907;28;20041;-73
2022/01/31 10:53:48;;;;;;;9.63;2.33;;;;;;;16.70;39.86;102839.78;5015769;28;20026;-74
2022/01/31 10:56:14;;;;;;;13.63;3.55;;;;;;;16.45;40.29;102836.31;5015381;28;20032;-73
2022/01/31 10:59:10;;;;;;;9.32;3.53;;;;;;;16.47;39.95;102838.78;5018024;28;20030;-78
2022/01/31 11:01:40;;;;;;;15.63;4.32;;;;;;;16.41;40.22;102840.00;5021715;28;20022;-73
2022/01/31 11:04:10;;;;;;;13.65;3.20;;;;;;;16.64;39.77;102839.88;5014772;28;20026;-73
2022/01/31 11:06:39;;;;;;;13.13;3.88;;;;;;;16.42;40.28;102847.97;5014088;28;20030;-74
2022/01/31 11:09:11;;;;;;;18.77;4.28;;;;;;;16.71;39.91;102846.97;5014040;28;20061;-74
2022/01/31 11:11:39;;;;;;;8.85;2.78;;;;;;;16.29;40.76;102844.03;5022517;28;20037;-80
2022/01/31 11:14:06;;;;;;;8.80;3.70;;;;;;;16.60;40.23;102840.75;5013140;28;20101;-73
2022/01/31 11:16:32;;;;;;;13.18;4.40;;;;;;;16.78;39.57;102852.91;5020251;28;20017;-75
2022/01/31 11:19:02;;;;;;;10.88;3.50;;;;;;;16.66;40.13;102850.59;5013057;28;20034;-74
2022/01/31 11:21:32;;;;;;;10.15;3.20;;;;;;;16.95;39.53;102847.63;5012539;28;20075;-75
2022/01/31 11:24:04;;;;;;;16.80;4.05;;;;;;;16.84;39.52;102854.44;5012960;28;20018;-73
2022/01/31 11:26:38;;;;;;;16.08;3.38;;;;;;;16.76;39.78;102839.38;5012766;28;20097;-74
2022/01/31 11:29:08;;;;;;;13.70;4.15;;;;;;;17.05;39.66;102847.41;5011172;28;20113;-73
2022/01/31 11:31:36;;;;;;;17.38;3.63;;;;;;;17.01;39.52;102849.16;5013448;28;20042;-74
2022/01/31 11:34:04;;;;;;;9.35;3.45;;;;;;;17.02;39.42;102849.97;5011581;28;20176;-73
2022/01/31 11:36:33;;;;;;;19.90;3.78;;;;;;;17.09;39.11;102855.91;5012591;28;20036;-74
2022/01/31 11:38:59;;;;;;;12.75;3.45;;;;;;;17.11;39.02;102854.47;5011329;28;20037;-75
2022/01/31 11:41:26;;;;;;;14.75;3.65;;;;;;;17.16;39.03;102859.09;5012751;28;20036;-74